Bridgeville, PA

5:47 PM EDT on October 21, 2014 (GMT -0400)
Allegheny County | Change Station
CLOSE
Current Station
Airport
Location: Pittsburgh Allegheny Co.,
Elevation: 382 m
Nearby Weather Stations

Elev 382 m 40.35 °N, 79.92 °W | Updated 21 minutes ago

Overcast
Overcast
9 °C
Feels Like 9 °C
N
15
Wind Variable Wind from NNW
Gusts 32 km/h

Today
High -- | Low -- °C
--% Chance of Precip.
Yesterday
High -- | Low -- °C
Precip. -- mm
7:37 AM 6:31 PM
Waning Crescent, 4% visible
Pressure 1013 hPa
Visibility 3.2 kilometers
Clouds Few 304 m
Mostly Cloudy 457 m
Overcast 1127 m
Dew Point 7 °C
Humidity 83%
Rainfall 2.3 mm
Snow Depth Not available.
UV 0 out of 12
Pollen .30 out of 12
Ozone Good
PM2.5 Good
Flu Activity Sporadic
SPECI KAGC 212126Z 33008G17KT 2SM -RA FEW010 BKN015 OVC037 09/07 A2992 RMK AO2 P0001 T00940067

More Conditions Fewer Conditions

Pressure 1013 hPa
Visibility 3.2 kilometers
Clouds Few 304 m
Mostly Cloudy 457 m
Overcast 1127 m
Dew Point 7 °C
Humidity 83%
Rainfall 2.3 mm
Snow Depth Not available.
UV 0 out of 12
Pollen .30 out of 12
Ozone Good
PM2.5 Good
Flu Activity Sporadic
SPECI KAGC 212126Z 33008G17KT 2SM -RA FEW010 BKN015 OVC037 09/07 A2992 RMK AO2 P0001 T00940067

More Conditions Fewer Conditions

10-Day Weather Forecast

Almanac

Astronomy

Oct. 21, 2014 Rise Set
Actual Time 7:37 AM EDT 6:31 PM EDT
Civil Twilight 7:10 AM EDT 6:59 PM EDT
Nautical Twilight 6:38 AM EDT 7:31 PM EDT
Astronomical Twilight 6:06 AM EDT 8:02 PM EDT
Moon 5:20 AM EDT 5:25 PM EDT
Length of Visible Light 11h 49m
Length of Day
10h 54m
Tomorrow will be 2m 30s shorter.
Waning Crescent, 4% of the Moon is Illuminated
Today
Waning Crescent
Oct 23
New
Oct 30
First Quarter
Nov 6
Full
Nov 14
Last Quarter

Today's Extremes

State Highs State Lows

Community

WunderPhotos

Upload Photos

1,763,785 photos uploaded!

Nearby

Air Quality

  Air Quality AQ Index Pollutant
Yesterday Good
PM2.5
Yesterday Good
OZONE
Current Good
PM2.5
Current Good
OZONE
Tuesday Good
PM2.5
Wednesday Good
PM2.5
Thursday Good
PM2.5

Snow Depth

Station Depth Elevation
No new snow has been reported.

Earthquake Activity

City Distance Mag. Time & Date
No recent earthquake activity has been reported nearby.
Minimum magnitude displayed is 2.5.

Coastal Water Temperatures

Place Temperature
No Stations Reporting

Nearby Weather Stations